sensor_id;sensor_type;location;lat;lon;timestamp;temperature;humidity
18153;DHT22;9202;51.578;7.734;2023-04-09T00:01:12;5.10;99.90
18153;DHT22;9202;51.578;7.734;2023-04-09T00:03:14;5.10;99.90
18153;DHT22;9202;51.578;7.734;2023-04-09T00:05:17;5.10;99.90
18153;DHT22;9202;51.578;7.734;2023-04-09T00:07:19;5.00;99.90
18153;DHT22;9202;51.578;7.734;2023-04-09T00:09:22;5.00;99.90
18153;DHT22;9202;51.578;7.734;2023-04-09T00:11:24;4.90;99.90
18153;DHT22;9202;51.578;7.734;2023-04-09T00:13:27;4.90;99.90
18153;DHT22;9202;51.578;7.734;2023-04-09T00:15:31;4.80;99.90
18153;DHT22;9202;51.578;7.734;2023-04-09T00:17:34;4.70;99.90
18153;DHT22;9202;51.578;7.734;2023-04-09T00:19:37;4.60;99.90
18153;DHT22;9202;51.578;7.734;2023-04-09T00:21:39;4.60;99.90
18153;DHT22;9202;51.578;7.734;2023-04-09T00:23:42;4.50;99.90
18153;DHT22;9202;51.578;7.734;2023-04-09T00:25:44;4.60;99.90
18153;DHT22;9202;51.578;7.734;2023-04-09T00:27:47;4.50;99.90
18153;DHT22;9202;51.578;7.734;2023-04-09T00:29:49;4.50;99.90
18153;DHT22;9202;51.578;7.734;2023-04-09T00:31:54;4.50;99.90
18153;DHT22;9202;51.578;7.734;2023-04-09T00:33:57;4.50;99.90
18153;DHT22;9202;51.578;7.734;2023-04-09T00:35:59;4.50;99.90
18153;DHT22;9202;51.578;7.734;2023-04-09T00:38:02;4.50;99.90
18153;DHT22;9202;51.578;7.734;2023-04-09T00:40:06;4.40;99.90
18153;DHT22;9202;51.578;7.734;2023-04-09T00:42:09;4.40;99.90
18153;DHT22;9202;51.578;7.734;2023-04-09T00:44:11;4.30;99.90
18153;DHT22;9202;51.578;7.734;2023-04-09T00:46:14;4.30;99.90
18153;DHT22;9202;51.578;7.734;2023-04-09T00:48:17;4.20;99.90
18153;DHT22;9202;51.578;7.734;2023-04-09T00:50:20;4.20;99.90
18153;DHT22;9202;51.578;7.734;2023-04-09T00:52:23;4.10;99.90
18153;DHT22;9202;51.578;7.734;2023-04-09T00:54:26;4.10;99.90
18153;DHT22;9202;51.578;7.734;2023-04-09T00:56:29;4.10;99.90
18153;DHT22;9202;51.578;7.734;2023-04-09T00:58:32;4.10;99.90
18153;DHT22;9202;51.578;7.734;2023-04-09T01:00:34;4.10;99.90
18153;DHT22;9202;51.578;7.734;2023-04-09T01:02:37;4.10;99.90
18153;DHT22;9202;51.578;7.734;2023-04-09T01:04:40;4.10;99.90
18153;DHT22;9202;51.578;7.734;2023-04-09T01:06:44;4.10;99.90
18153;DHT22;9202;51.578;7.734;2023-04-09T01:08:50;4.10;99.90
18153;DHT22;9202;51.578;7.734;2023-04-09T01:10:55;4.10;99.90
18153;DHT22;9202;51.578;7.734;2023-04-09T01:13:01;4.10;99.90
18153;DHT22;9202;51.578;7.734;2023-04-09T01:15:05;4.10;99.90
18153;DHT22;9202;51.578;7.734;2023-04-09T01:17:10;4.00;99.90
18153;DHT22;9202;51.578;7.734;2023-04-09T01:19:17;4.00;99.90
18153;DHT22;9202;51.578;7.734;2023-04-09T01:21:20;4.00;99.90
18153;DHT22;9202;51.578;7.734;2023-04-09T01:23:28;4.00;99.90
18153;DHT22;9202;51.578;7.734;2023-04-09T01:25:35;3.90;99.90
18153;DHT22;9202;51.578;7.734;2023-04-09T01:27:41;3.90;99.90
18153;DHT22;9202;51.578;7.734;2023-04-09T01:29:44;3.80;99.90
18153;DHT22;9202;51.578;7.734;2023-04-09T01:31:47;3.90;99.90
18153;DHT22;9202;51.578;7.734;2023-04-09T01:33:50;3.80;99.90
18153;DHT22;9202;51.578;7.734;2023-04-09T01:35:53;3.80;99.90
18153;DHT22;9202;51.578;7.734;2023-04-09T01:37:56;3.80;99.90
18153;DHT22;9202;51.578;7.734;2023-04-09T01:40:00;3.80;99.90
18153;DHT22;9202;51.578;7.734;2023-04-09T01:42:06;3.80;99.90
18153;DHT22;9202;51.578;7.734;2023-04-09T01:44:11;3.70;99.90
18153;DHT22;9202;51.578;7.734;2023-04-09T01:46:14;3.80;99.90
18153;DHT22;9202;51.578;7.734;2023-04-09T01:48:18;3.80;99.90
18153;DHT22;9202;51.578;7.734;2023-04-09T01:50:21;3.80;99.90
18153;DHT22;9202;51.578;7.734;2023-04-09T01:52:23;3.80;99.90
18153;DHT22;9202;51.578;7.734;2023-04-09T01:54:26;3.80;99.90
18153;DHT22;9202;51.578;7.734;2023-04-09T01:56:38;3.80;99.90
18153;DHT22;9202;51.578;7.734;2023-04-09T01:58:41;3.80;99.90
18153;DHT22;9202;51.578;7.734;2023-04-09T02:00:44;3.80;99.90
18153;DHT22;9202;51.578;7.734;2023-04-09T02:02:54;3.80;99.90
18153;DHT22;9202;51.578;7.734;2023-04-09T02:04:53;3.80;99.90
18153;DHT22;9202;51.578;7.734;2023-04-09T02:06:57;3.70;99.90
18153;DHT22;9202;51.578;7.734;2023-04-09T02:09:00;3.70;99.90
18153;DHT22;9202;51.578;7.734;2023-04-09T02:11:04;3.70;99.90
18153;DHT22;9202;51.578;7.734;2023-04-09T02:13:09;3.70;99.90
18153;DHT22;9202;51.578;7.734;2023-04-09T02:15:12;3.70;99.90
18153;DHT22;9202;51.578;7.734;2023-04-09T02:17:15;3.70;99.90
18153;DHT22;9202;51.578;7.734;2023-04-09T02:19:18;3.70;99.90
18153;DHT22;9202;51.578;7.734;2023-04-09T02:21:21;3.70;99.90
18153;DHT22;9202;51.578;7.734;2023-04-09T02:23:24;3.70;99.90
18153;DHT22;9202;51.578;7.734;2023-04-09T02:25:27;3.70;99.90
18153;DHT22;9202;51.578;7.734;2023-04-09T02:27:31;3.60;99.90
18153;DHT22;9202;51.578;7.734;2023-04-09T02:29:33;3.60;99.90
18153;DHT22;9202;51.578;7.734;2023-04-09T02:31:36;3.50;99.90
18153;DHT22;9202;51.578;7.734;2023-04-09T02:33:39;3.50;99.90
18153;DHT22;9202;51.578;7.734;2023-04-09T02:35:41;3.50;99.90
18153;DHT22;9202;51.578;7.734;2023-04-09T02:37:44;3.60;99.90
18153;DHT22;9202;51.578;7.734;2023-04-09T02:39:47;3.60;99.90
18153;DHT22;9202;51.578;7.734;2023-04-09T02:41:49;3.70;99.90
18153;DHT22;9202;51.578;7.734;2023-04-09T02:43:52;3.70;99.90
18153;DHT22;9202;51.578;7.734;2023-04-09T02:45:55;3.70;99.90
18153;DHT22;9202;51.578;7.734;2023-04-09T02:47:57;3.70;99.90
18153;DHT22;9202;51.578;7.734;2023-04-09T02:50:00;3.60;99.90
18153;DHT22;9202;51.578;7.734;2023-04-09T02:52:05;3.60;99.90
18153;DHT22;9202;51.578;7.734;2023-04-09T02:54:07;3.60;99.90
18153;DHT22;9202;51.578;7.734;2023-04-09T02:56:10;3.60;99.90
18153;DHT22;9202;51.578;7.734;2023-04-09T02:58:12;3.50;99.90
18153;DHT22;9202;51.578;7.734;2023-04-09T03:00:15;3.50;99.90
18153;DHT22;9202;51.578;7.734;2023-04-09T03:02:17;3.40;99.90
18153;DHT22;9202;51.578;7.734;2023-04-09T03:04:20;3.50;99.90
18153;DHT22;9202;51.578;7.734;2023-04-09T03:06:23;3.50;99.90
18153;DHT22;9202;51.578;7.734;2023-04-09T03:08:26;3.50;99.90
18153;DHT22;9202;51.578;7.734;2023-04-09T03:10:28;3.50;99.90
18153;DHT22;9202;51.578;7.734;2023-04-09T03:12:31;3.60;99.90
18153;DHT22;9202;51.578;7.734;2023-04-09T03:14:33;3.60;99.90
18153;DHT22;9202;51.578;7.734;2023-04-09T03:16:36;3.60;99.90
18153;DHT22;9202;51.578;7.734;2023-04-09T03:18:39;3.70;99.90
18153;DHT22;9202;51.578;7.734;2023-04-09T03:20:42;3.70;99.90
18153;DHT22;9202;51.578;7.734;2023-04-09T03:22:45;3.60;99.90
18153;DHT22;9202;51.578;7.734;2023-04-09T03:24:49;3.60;99.90
18153;DHT22;9202;51.578;7.734;2023-04-09T03:26:52;3.50;99.90
18153;DHT22;9202;51.578;7.734;2023-04-09T03:28:54;3.50;99.90
18153;DHT22;9202;51.578;7.734;2023-04-09T03:30:57;3.50;99.90
18153;DHT22;9202;51.578;7.734;2023-04-09T03:33:00;3.50;99.90
18153;DHT22;9202;51.578;7.734;2023-04-09T03:35:04;3.50;99.90
18153;DHT22;9202;51.578;7.734;2023-04-09T03:37:07;3.50;99.90
18153;DHT22;9202;51.578;7.734;2023-04-09T03:39:10;3.50;99.90
18153;DHT22;9202;51.578;7.734;2023-04-09T03:41:14;3.40;99.90
18153;DHT22;9202;51.578;7.734;2023-04-09T03:43:17;3.40;99.90
18153;DHT22;9202;51.578;7.734;2023-04-09T03:45:21;3.50;99.90
18153;DHT22;9202;51.578;7.734;2023-04-09T03:47:25;3.40;99.90
18153;DHT22;9202;51.578;7.734;2023-04-09T03:49:29;3.30;99.90
18153;DHT22;9202;51.578;7.734;2023-04-09T03:51:33;3.30;99.90
18153;DHT22;9202;51.578;7.734;2023-04-09T03:53:36;3.30;99.90
18153;DHT22;9202;51.578;7.734;2023-04-09T03:55:40;3.20;99.90
18153;DHT22;9202;51.578;7.734;2023-04-09T03:57:44;3.20;99.90
18153;DHT22;9202;51.578;7.734;2023-04-09T03:59:49;3.20;99.90
18153;DHT22;9202;51.578;7.734;2023-04-09T04:01:53;3.20;99.90
18153;DHT22;9202;51.578;7.734;2023-04-09T04:03:56;3.20;99.90
18153;DHT22;9202;51.578;7.734;2023-04-09T04:06:00;3.30;99.90
18153;DHT22;9202;51.578;7.734;2023-04-09T04:08:05;3.20;99.90
18153;DHT22;9202;51.578;7.734;2023-04-09T04:10:08;3.20;99.90
18153;DHT22;9202;51.578;7.734;2023-04-09T04:12:13;3.20;99.90
18153;DHT22;9202;51.578;7.734;2023-04-09T04:14:17;3.30;99.90
18153;DHT22;9202;51.578;7.734;2023-04-09T04:16:21;3.30;99.90
18153;DHT22;9202;51.578;7.734;2023-04-09T04:18:25;3.30;99.90
18153;DHT22;9202;51.578;7.734;2023-04-09T04:20:28;3.20;99.90
18153;DHT22;9202;51.578;7.734;2023-04-09T04:22:33;3.10;99.90
18153;DHT22;9202;51.578;7.734;2023-04-09T04:24:36;3.10;99.90
18153;DHT22;9202;51.578;7.734;2023-04-09T04:26:39;3.10;99.90
18153;DHT22;9202;51.578;7.734;2023-04-09T04:28:42;3.10;99.90
18153;DHT22;9202;51.578;7.734;2023-04-09T04:30:46;3.00;99.90
18153;DHT22;9202;51.578;7.734;2023-04-09T04:32:49;3.10;99.90
18153;DHT22;9202;51.578;7.734;2023-04-09T04:34:51;3.00;99.90
18153;DHT22;9202;51.578;7.734;2023-04-09T04:36:56;3.00;99.90
18153;DHT22;9202;51.578;7.734;2023-04-09T04:38:59;3.00;99.90
18153;DHT22;9202;51.578;7.734;2023-04-09T04:41:03;3.00;99.90
18153;DHT22;9202;51.578;7.734;2023-04-09T04:43:08;3.00;99.90
18153;DHT22;9202;51.578;7.734;2023-04-09T04:45:10;3.00;99.90
18153;DHT22;9202;51.578;7.734;2023-04-09T04:47:15;2.90;99.90
18153;DHT22;9202;51.578;7.734;2023-04-09T04:49:17;2.90;99.90
18153;DHT22;9202;51.578;7.734;2023-04-09T04:51:22;2.80;99.90
18153;DHT22;9202;51.578;7.734;2023-04-09T04:53:26;2.80;99.90
18153;DHT22;9202;51.578;7.734;2023-04-09T04:55:29;2.80;99.90
18153;DHT22;9202;51.578;7.734;2023-04-09T04:57:33;2.80;99.90
18153;DHT22;9202;51.578;7.734;2023-04-09T04:59:36;2.80;99.90
18153;DHT22;9202;51.578;7.734;2023-04-09T05:01:41;2.80;99.90
18153;DHT22;9202;51.578;7.734;2023-04-09T05:03:45;2.80;99.90
18153;DHT22;9202;51.578;7.734;2023-04-09T05:05:50;2.90;99.90
18153;DHT22;9202;51.578;7.734;2023-04-09T05:07:53;2.90;99.90
18153;DHT22;9202;51.578;7.734;2023-04-09T05:09:56;2.90;99.90
18153;DHT22;9202;51.578;7.734;2023-04-09T05:11:59;2.80;99.90
18153;DHT22;9202;51.578;7.734;2023-04-09T05:14:02;2.80;99.90
18153;DHT22;9202;51.578;7.734;2023-04-09T05:16:06;2.70;99.90
18153;DHT22;9202;51.578;7.734;2023-04-09T05:18:09;2.80;99.90
18153;DHT22;9202;51.578;7.734;2023-04-09T05:20:12;2.70;99.90
18153;DHT22;9202;51.578;7.734;2023-04-09T05:22:17;2.70;99.90
18153;DHT22;9202;51.578;7.734;2023-04-09T05:24:19;2.70;99.90
18153;DHT22;9202;51.578;7.734;2023-04-09T05:26:22;2.80;99.90
18153;DHT22;9202;51.578;7.734;2023-04-09T05:28:27;2.80;99.90
18153;DHT22;9202;51.578;7.734;2023-04-09T05:30:31;2.80;99.90
18153;DHT22;9202;51.578;7.734;2023-04-09T05:32:35;2.80;99.90
18153;DHT22;9202;51.578;7.734;2023-04-09T05:34:38;2.90;99.90
18153;DHT22;9202;51.578;7.734;2023-04-09T05:36:41;3.00;99.90
18153;DHT22;9202;51.578;7.734;2023-04-09T05:38:44;3.00;99.90
18153;DHT22;9202;51.578;7.734;2023-04-09T05:40:47;3.20;99.90
18153;DHT22;9202;51.578;7.734;2023-04-09T05:42:50;3.20;99.90
18153;DHT22;9202;51.578;7.734;2023-04-09T05:44:55;3.30;99.90
18153;DHT22;9202;51.578;7.734;2023-04-09T05:46:58;3.20;99.90
18153;DHT22;9202;51.578;7.734;2023-04-09T05:49:02;3.40;99.90
18153;DHT22;9202;51.578;7.734;2023-04-09T05:51:06;3.40;99.90
18153;DHT22;9202;51.578;7.734;2023-04-09T05:53:10;3.40;99.90
18153;DHT22;9202;51.578;7.734;2023-04-09T05:55:13;3.40;99.90
18153;DHT22;9202;51.578;7.734;2023-04-09T05:57:18;3.50;99.90
18153;DHT22;9202;51.578;7.734;2023-04-09T05:59:22;3.60;99.90
18153;DHT22;9202;51.578;7.734;2023-04-09T06:01:25;3.70;99.90
18153;DHT22;9202;51.578;7.734;2023-04-09T06:03:28;3.80;99.90
18153;DHT22;9202;51.578;7.734;2023-04-09T06:05:31;3.90;99.90
18153;DHT22;9202;51.578;7.734;2023-04-09T06:07:33;4.00;99.90
18153;DHT22;9202;51.578;7.734;2023-04-09T06:09:37;4.10;99.90
18153;DHT22;9202;51.578;7.734;2023-04-09T06:11:40;4.20;99.90
18153;DHT22;9202;51.578;7.734;2023-04-09T06:13:43;4.20;99.90
18153;DHT22;9202;51.578;7.734;2023-04-09T06:15:46;4.30;99.90
18153;DHT22;9202;51.578;7.734;2023-04-09T06:17:50;4.30;99.90
18153;DHT22;9202;51.578;7.734;2023-04-09T06:19:53;4.40;99.90
18153;DHT22;9202;51.578;7.734;2023-04-09T06:21:56;4.40;99.90
18153;DHT22;9202;51.578;7.734;2023-04-09T06:23:59;4.50;99.90
18153;DHT22;9202;51.578;7.734;2023-04-09T06:26:01;4.50;99.90
18153;DHT22;9202;51.578;7.734;2023-04-09T06:28:04;4.50;99.90
18153;DHT22;9202;51.578;7.734;2023-04-09T06:30:08;4.70;99.90
18153;DHT22;9202;51.578;7.734;2023-04-09T06:32:11;4.70;99.90
18153;DHT22;9202;51.578;7.734;2023-04-09T06:34:14;4.80;99.90
18153;DHT22;9202;51.578;7.734;2023-04-09T06:36:16;4.80;99.90
18153;DHT22;9202;51.578;7.734;2023-04-09T06:38:19;4.90;99.90
18153;DHT22;9202;51.578;7.734;2023-04-09T06:40:23;5.00;99.90
18153;DHT22;9202;51.578;7.734;2023-04-09T06:42:27;5.10;99.90
18153;DHT22;9202;51.578;7.734;2023-04-09T06:44:32;5.20;99.90
18153;DHT22;9202;51.578;7.734;2023-04-09T06:46:35;5.30;99.90
18153;DHT22;9202;51.578;7.734;2023-04-09T06:48:38;5.40;99.90
18153;DHT22;9202;51.578;7.734;2023-04-09T06:50:41;5.50;99.90
18153;DHT22;9202;51.578;7.734;2023-04-09T06:52:43;5.70;99.90
18153;DHT22;9202;51.578;7.734;2023-04-09T06:54:46;5.80;99.90
18153;DHT22;9202;51.578;7.734;2023-04-09T06:56:48;5.90;99.90
18153;DHT22;9202;51.578;7.734;2023-04-09T06:58:51;6.00;99.90
18153;DHT22;9202;51.578;7.734;2023-04-09T07:00:53;6.10;99.90
18153;DHT22;9202;51.578;7.734;2023-04-09T07:02:56;6.30;99.90
18153;DHT22;9202;51.578;7.734;2023-04-09T07:04:59;6.40;99.90
18153;DHT22;9202;51.578;7.734;2023-04-09T07:07:02;6.50;99.90
18153;DHT22;9202;51.578;7.734;2023-04-09T07:09:04;6.60;99.90
18153;DHT22;9202;51.578;7.734;2023-04-09T07:11:07;6.60;99.90
18153;DHT22;9202;51.578;7.734;2023-04-09T07:13:09;6.70;99.90
18153;DHT22;9202;51.578;7.734;2023-04-09T07:15:12;6.80;99.90
18153;DHT22;9202;51.578;7.734;2023-04-09T07:17:15;7.00;99.90
18153;DHT22;9202;51.578;7.734;2023-04-09T07:19:18;7.10;99.90
18153;DHT22;9202;51.578;7.734;2023-04-09T07:21:22;7.10;99.90
18153;DHT22;9202;51.578;7.734;2023-04-09T07:23:24;7.30;99.90
18153;DHT22;9202;51.578;7.734;2023-04-09T07:25:28;7.40;99.90
18153;DHT22;9202;51.578;7.734;2023-04-09T07:27:30;7.40;99.90
18153;DHT22;9202;51.578;7.734;2023-04-09T07:29:33;7.50;99.90
18153;DHT22;9202;51.578;7.734;2023-04-09T07:31:35;7.60;99.90
18153;DHT22;9202;51.578;7.734;2023-04-09T07:33:38;7.70;99.90
18153;DHT22;9202;51.578;7.734;2023-04-09T07:35:41;7.70;99.90
18153;DHT22;9202;51.578;7.734;2023-04-09T07:37:43;7.80;99.90
18153;DHT22;9202;51.578;7.734;2023-04-09T07:39:46;7.90;99.90
18153;DHT22;9202;51.578;7.734;2023-04-09T07:41:49;8.00;99.90
18153;DHT22;9202;51.578;7.734;2023-04-09T07:43:51;8.10;99.90
18153;DHT22;9202;51.578;7.734;2023-04-09T07:45:54;8.30;99.90
18153;DHT22;9202;51.578;7.734;2023-04-09T07:47:56;8.30;99.90
18153;DHT22;9202;51.578;7.734;2023-04-09T07:49:59;8.50;99.90
18153;DHT22;9202;51.578;7.734;2023-04-09T07:52:02;8.50;99.90
18153;DHT22;9202;51.578;7.734;2023-04-09T07:54:05;8.60;99.90
18153;DHT22;9202;51.578;7.734;2023-04-09T07:56:07;8.70;99.90
18153;DHT22;9202;51.578;7.734;2023-04-09T07:58:10;8.80;99.90
18153;DHT22;9202;51.578;7.734;2023-04-09T08:00:13;8.90;99.90
18153;DHT22;9202;51.578;7.734;2023-04-09T08:02:20;9.00;99.90
18153;DHT22;9202;51.578;7.734;2023-04-09T08:04:27;9.10;99.90
18153;DHT22;9202;51.578;7.734;2023-04-09T08:06:30;9.30;99.90
18153;DHT22;9202;51.578;7.734;2023-04-09T08:10:50;9.50;99.90
18153;DHT22;9202;51.578;7.734;2023-04-09T08:12:52;9.60;99.90
18153;DHT22;9202;51.578;7.734;2023-04-09T08:14:55;9.70;99.90
18153;DHT22;9202;51.578;7.734;2023-04-09T08:16:58;9.80;99.90
18153;DHT22;9202;51.578;7.734;2023-04-09T08:19:03;10.00;99.90
18153;DHT22;9202;51.578;7.734;2023-04-09T08:21:06;10.00;99.90
18153;DHT22;9202;51.578;7.734;2023-04-09T08:23:09;10.10;99.90
18153;DHT22;9202;51.578;7.734;2023-04-09T08:25:12;10.20;99.90
18153;DHT22;9202;51.578;7.734;2023-04-09T08:27:15;10.30;99.90
18153;DHT22;9202;51.578;7.734;2023-04-09T08:29:18;10.50;99.90
18153;DHT22;9202;51.578;7.734;2023-04-09T08:31:21;10.50;99.90
18153;DHT22;9202;51.578;7.734;2023-04-09T08:33:24;10.30;99.90
18153;DHT22;9202;51.578;7.734;2023-04-09T08:35:28;10.50;99.90
18153;DHT22;9202;51.578;7.734;2023-04-09T08:37:31;10.60;99.90
18153;DHT22;9202;51.578;7.734;2023-04-09T08:39:33;10.60;99.90
18153;DHT22;9202;51.578;7.734;2023-04-09T08:41:37;10.80;99.90
18153;DHT22;9202;51.578;7.734;2023-04-09T08:43:41;11.00;99.90
18153;DHT22;9202;51.578;7.734;2023-04-09T08:45:46;11.30;99.90
18153;DHT22;9202;51.578;7.734;2023-04-09T08:47:49;11.40;99.90
18153;DHT22;9202;51.578;7.734;2023-04-09T08:49:52;11.40;99.90
18153;DHT22;9202;51.578;7.734;2023-04-09T08:51:55;11.50;99.90
18153;DHT22;9202;51.578;7.734;2023-04-09T08:53:58;11.60;99.90
18153;DHT22;9202;51.578;7.734;2023-04-09T08:56:03;11.60;99.90
18153;DHT22;9202;51.578;7.734;2023-04-09T08:58:06;11.70;99.90
18153;DHT22;9202;51.578;7.734;2023-04-09T09:00:09;11.80;99.90
18153;DHT22;9202;51.578;7.734;2023-04-09T09:02:11;11.90;99.90
18153;DHT22;9202;51.578;7.734;2023-04-09T09:04:14;12.00;99.90
18153;DHT22;9202;51.578;7.734;2023-04-09T09:06:19;12.00;99.90
18153;DHT22;9202;51.578;7.734;2023-04-09T09:08:31;12.20;99.90
18153;DHT22;9202;51.578;7.734;2023-04-09T09:10:53;12.20;99.90
18153;DHT22;9202;51.578;7.734;2023-04-09T09:12:57;12.30;99.90
18153;DHT22;9202;51.578;7.734;2023-04-09T09:15:00;12.70;99.90
18153;DHT22;9202;51.578;7.734;2023-04-09T09:17:03;13.00;99.90
18153;DHT22;9202;51.578;7.734;2023-04-09T09:19:06;13.40;99.90
18153;DHT22;9202;51.578;7.734;2023-04-09T09:21:12;13.50;99.90
18153;DHT22;9202;51.578;7.734;2023-04-09T09:23:14;13.60;99.90
18153;DHT22;9202;51.578;7.734;2023-04-09T09:25:17;13.50;99.90
18153;DHT22;9202;51.578;7.734;2023-04-09T09:27:31;13.80;99.90
18153;DHT22;9202;51.578;7.734;2023-04-09T09:29:34;13.70;99.90
18153;DHT22;9202;51.578;7.734;2023-04-09T09:31:45;13.60;99.90
18153;DHT22;9202;51.578;7.734;2023-04-09T09:33:50;13.90;99.90
18153;DHT22;9202;51.578;7.734;2023-04-09T09:35:52;14.10;99.90
18153;DHT22;9202;51.578;7.734;2023-04-09T09:38:02;13.20;99.90
18153;DHT22;9202;51.578;7.734;2023-04-09T09:40:06;13.20;99.90
18153;DHT22;9202;51.578;7.734;2023-04-09T09:42:09;13.30;99.90
18153;DHT22;9202;51.578;7.734;2023-04-09T09:44:12;13.00;99.90
18153;DHT22;9202;51.578;7.734;2023-04-09T09:46:16;13.30;99.90
18153;DHT22;9202;51.578;7.734;2023-04-09T09:48:18;13.40;99.90
18153;DHT22;9202;51.578;7.734;2023-04-09T09:50:21;13.30;99.90
18153;DHT22;9202;51.578;7.734;2023-04-09T09:52:25;13.30;99.90
18153;DHT22;9202;51.578;7.734;2023-04-09T09:54:28;13.20;99.90
18153;DHT22;9202;51.578;7.734;2023-04-09T09:56:33;13.10;99.90
18153;DHT22;9202;51.578;7.734;2023-04-09T09:58:37;13.20;99.90
18153;DHT22;9202;51.578;7.734;2023-04-09T10:00:40;13.40;99.90
18153;DHT22;9202;51.578;7.734;2023-04-09T10:02:45;13.10;99.90
18153;DHT22;9202;51.578;7.734;2023-04-09T10:04:48;12.90;99.90
18153;DHT22;9202;51.578;7.734;2023-04-09T10:06:51;12.90;99.90
18153;DHT22;9202;51.578;7.734;2023-04-09T10:11:12;12.70;99.90
18153;DHT22;9202;51.578;7.734;2023-04-09T10:13:16;12.70;99.90
18153;DHT22;9202;51.578;7.734;2023-04-09T10:15:19;12.80;99.90
18153;DHT22;9202;51.578;7.734;2023-04-09T10:17:22;12.80;99.90
18153;DHT22;9202;51.578;7.734;2023-04-09T10:19:24;12.80;99.90
18153;DHT22;9202;51.578;7.734;2023-04-09T10:21:30;12.70;99.90
18153;DHT22;9202;51.578;7.734;2023-04-09T10:23:35;12.60;99.90
18153;DHT22;9202;51.578;7.734;2023-04-09T10:25:38;12.60;99.90
18153;DHT22;9202;51.578;7.734;2023-04-09T10:27:42;12.90;99.90
18153;DHT22;9202;51.578;7.734;2023-04-09T10:29:47;13.40;99.90
18153;DHT22;9202;51.578;7.734;2023-04-09T10:31:50;13.90;99.90
18153;DHT22;9202;51.578;7.734;2023-04-09T10:33:53;13.80;99.90
18153;DHT22;9202;51.578;7.734;2023-04-09T10:35:59;13.80;99.90
18153;DHT22;9202;51.578;7.734;2023-04-09T10:38:02;13.60;99.90
18153;DHT22;9202;51.578;7.734;2023-04-09T10:40:05;14.10;99.90
18153;DHT22;9202;51.578;7.734;2023-04-09T10:42:12;14.40;99.90
18153;DHT22;9202;51.578;7.734;2023-04-09T10:44:21;13.60;99.90
18153;DHT22;9202;51.578;7.734;2023-04-09T10:46:25;13.70;99.90
18153;DHT22;9202;51.578;7.734;2023-04-09T10:48:28;13.30;99.90
18153;DHT22;9202;51.578;7.734;2023-04-09T10:50:32;13.20;99.90
18153;DHT22;9202;51.578;7.734;2023-04-09T10:52:36;13.70;99.90
18153;DHT22;9202;51.578;7.734;2023-04-09T10:54:42;14.10;99.90
18153;DHT22;9202;51.578;7.734;2023-04-09T10:59:07;14.50;99.90
18153;DHT22;9202;51.578;7.734;2023-04-09T11:01:10;14.10;99.90
18153;DHT22;9202;51.578;7.734;2023-04-09T11:03:21;13.70;99.90
18153;DHT22;9202;51.578;7.734;2023-04-09T11:05:26;13.40;99.90
18153;DHT22;9202;51.578;7.734;2023-04-09T11:07:29;13.20;99.90
18153;DHT22;9202;51.578;7.734;2023-04-09T11:09:34;13.20;99.90
18153;DHT22;9202;51.578;7.734;2023-04-09T11:11:36;13.40;99.90
18153;DHT22;9202;51.578;7.734;2023-04-09T11:13:39;13.30;99.90
18153;DHT22;9202;51.578;7.734;2023-04-09T11:15:42;13.20;99.90
18153;DHT22;9202;51.578;7.734;2023-04-09T11:17:45;13.40;99.90
18153;DHT22;9202;51.578;7.734;2023-04-09T11:19:48;13.40;99.90
18153;DHT22;9202;51.578;7.734;2023-04-09T11:21:51;13.20;99.90
18153;DHT22;9202;51.578;7.734;2023-04-09T11:23:53;13.30;99.90
18153;DHT22;9202;51.578;7.734;2023-04-09T11:25:56;13.30;99.90
18153;DHT22;9202;51.578;7.734;2023-04-09T11:27:59;13.40;99.90
18153;DHT22;9202;51.578;7.734;2023-04-09T11:30:01;13.40;99.90
18153;DHT22;9202;51.578;7.734;2023-04-09T11:32:04;13.40;99.90
18153;DHT22;9202;51.578;7.734;2023-04-09T11:34:09;13.50;99.90
18153;DHT22;9202;51.578;7.734;2023-04-09T11:36:11;13.30;99.90
18153;DHT22;9202;51.578;7.734;2023-04-09T11:38:14;13.50;99.90
18153;DHT22;9202;51.578;7.734;2023-04-09T11:40:17;13.40;99.90
18153;DHT22;9202;51.578;7.734;2023-04-09T11:42:20;13.50;99.90
18153;DHT22;9202;51.578;7.734;2023-04-09T11:44:23;13.50;99.90
18153;DHT22;9202;51.578;7.734;2023-04-09T11:46:25;13.70;99.90
18153;DHT22;9202;51.578;7.734;2023-04-09T11:48:29;13.70;99.90
18153;DHT22;9202;51.578;7.734;2023-04-09T11:50:31;14.00;99.90
18153;DHT22;9202;51.578;7.734;2023-04-09T11:52:34;13.80;99.90
18153;DHT22;9202;51.578;7.734;2023-04-09T11:54:36;14.10;99.90
18153;DHT22;9202;51.578;7.734;2023-04-09T11:56:39;14.00;99.90
18153;DHT22;9202;51.578;7.734;2023-04-09T11:58:44;13.90;99.90
18153;DHT22;9202;51.578;7.734;2023-04-09T12:00:47;13.60;99.90
18153;DHT22;9202;51.578;7.734;2023-04-09T12:02:50;13.90;99.90
18153;DHT22;9202;51.578;7.734;2023-04-09T12:04:54;14.10;99.90
18153;DHT22;9202;51.578;7.734;2023-04-09T12:06:57;14.30;99.90
18153;DHT22;9202;51.578;7.734;2023-04-09T12:09:00;14.10;99.90
18153;DHT22;9202;51.578;7.734;2023-04-09T12:11:09;14.00;99.90
18153;DHT22;9202;51.578;7.734;2023-04-09T12:13:11;13.80;99.90
18153;DHT22;9202;51.578;7.734;2023-04-09T12:15:18;13.70;99.90
18153;DHT22;9202;51.578;7.734;2023-04-09T12:17:21;13.90;99.90
18153;DHT22;9202;51.578;7.734;2023-04-09T12:19:24;13.90;99.90
18153;DHT22;9202;51.578;7.734;2023-04-09T12:21:44;13.90;99.90
18153;DHT22;9202;51.578;7.734;2023-04-09T12:23:47;13.50;99.90
18153;DHT22;9202;51.578;7.734;2023-04-09T12:25:50;13.60;99.90
18153;DHT22;9202;51.578;7.734;2023-04-09T12:27:57;13.60;99.90
18153;DHT22;9202;51.578;7.734;2023-04-09T12:30:00;13.80;99.90
18153;DHT22;9202;51.578;7.734;2023-04-09T12:32:03;13.70;99.90
18153;DHT22;9202;51.578;7.734;2023-04-09T12:34:05;13.50;99.90
18153;DHT22;9202;51.578;7.734;2023-04-09T12:36:08;13.60;99.90
18153;DHT22;9202;51.578;7.734;2023-04-09T12:38:10;13.70;99.90
18153;DHT22;9202;51.578;7.734;2023-04-09T12:40:13;13.70;99.90
18153;DHT22;9202;51.578;7.734;2023-04-09T12:42:15;13.90;99.90
18153;DHT22;9202;51.578;7.734;2023-04-09T12:44:18;13.90;99.90
18153;DHT22;9202;51.578;7.734;2023-04-09T12:46:20;13.90;99.90
18153;DHT22;9202;51.578;7.734;2023-04-09T12:50:38;13.80;99.90
18153;DHT22;9202;51.578;7.734;2023-04-09T12:52:40;14.00;99.90
18153;DHT22;9202;51.578;7.734;2023-04-09T12:54:47;14.00;99.90
18153;DHT22;9202;51.578;7.734;2023-04-09T12:56:50;14.00;99.90
18153;DHT22;9202;51.578;7.734;2023-04-09T12:58:53;14.10;99.90
18153;DHT22;9202;51.578;7.734;2023-04-09T13:00:56;14.10;99.90
18153;DHT22;9202;51.578;7.734;2023-04-09T13:02:58;14.10;99.90
18153;DHT22;9202;51.578;7.734;2023-04-09T13:05:01;13.80;99.90
18153;DHT22;9202;51.578;7.734;2023-04-09T13:07:04;13.80;99.90
18153;DHT22;9202;51.578;7.734;2023-04-09T13:09:07;14.00;99.90
18153;DHT22;9202;51.578;7.734;2023-04-09T13:11:09;13.90;99.90
18153;DHT22;9202;51.578;7.734;2023-04-09T13:13:12;14.10;99.90
18153;DHT22;9202;51.578;7.734;2023-04-09T13:15:14;14.10;99.90
18153;DHT22;9202;51.578;7.734;2023-04-09T13:17:17;14.00;99.90
18153;DHT22;9202;51.578;7.734;2023-04-09T13:19:19;14.00;99.90
18153;DHT22;9202;51.578;7.734;2023-04-09T13:21:22;13.90;99.90
18153;DHT22;9202;51.578;7.734;2023-04-09T13:23:25;14.00;99.90
18153;DHT22;9202;51.578;7.734;2023-04-09T13:25:28;14.10;99.90
18153;DHT22;9202;51.578;7.734;2023-04-09T13:27:31;14.30;99.90
18153;DHT22;9202;51.578;7.734;2023-04-09T13:29:33;14.30;99.90